sensor_id;sensor_type;location;lat;lon;timestamp;pressure;altitude;pressure_sealevel;temperature;humidity
29331;BME280;16331;52.528;13.342;2022-11-15T00:00:29;157784.50;;;7.53;100.00
29331;BME280;16331;52.528;13.342;2022-11-15T00:02:55;157779.00;;;7.51;100.00
29331;BME280;16331;52.528;13.342;2022-11-15T00:05:21;157770.81;;;7.48;100.00
29331;BME280;16331;52.528;13.342;2022-11-15T00:07:47;157755.78;;;7.43;100.00
29331;BME280;16331;52.528;13.342;2022-11-15T00:10:13;157758.50;;;7.44;100.00
29331;BME280;16331;52.528;13.342;2022-11-15T00:12:41;157757.13;;;7.43;100.00
29331;BME280;16331;52.528;13.342;2022-11-15T00:15:07;157774.91;;;7.50;100.00
29331;BME280;16331;52.528;13.342;2022-11-15T00:17:33;157776.31;;;7.50;100.00
29331;BME280;16331;52.528;13.342;2022-11-15T00:19:59;157783.13;;;7.53;100.00
29331;BME280;16331;52.528;13.342;2022-11-15T00:22:31;157792.69;;;7.56;100.00
29331;BME280;16331;52.528;13.342;2022-11-15T00:24:57;157806.38;;;7.61;100.00
29331;BME280;16331;52.528;13.342;2022-11-15T00:27:23;157781.78;;;7.52;100.00
29331;BME280;16331;52.528;13.342;2022-11-15T00:29:49;157772.19;;;7.49;100.00
29331;BME280;16331;52.528;13.342;2022-11-15T00:32:15;157776.31;;;7.50;100.00
29331;BME280;16331;52.528;13.342;2022-11-15T00:34:41;157754.41;;;7.42;100.00
29331;BME280;16331;52.528;13.342;2022-11-15T00:37:07;157735.25;;;7.35;100.00
29331;BME280;16331;52.528;13.342;2022-11-15T00:39:33;157738.00;;;7.36;100.00
29331;BME280;16331;52.528;13.342;2022-11-15T00:41:59;157747.53;;;7.39;100.00
29331;BME280;16331;52.528;13.342;2022-11-15T00:44:25;157755.78;;;7.43;100.00
29331;BME280;16331;52.528;13.342;2022-11-15T00:46:51;157757.13;;;7.43;100.00
29331;BME280;16331;52.528;13.342;2022-11-15T00:49:17;157781.78;;;7.52;100.00
29331;BME280;16331;52.528;13.342;2022-11-15T00:51:43;157781.78;;;7.52;100.00
29331;BME280;16331;52.528;13.342;2022-11-15T00:54:09;157757.13;;;7.43;100.00
29331;BME280;16331;52.528;13.342;2022-11-15T00:56:36;157768.09;;;7.47;100.00
29331;BME280;16331;52.528;13.342;2022-11-15T00:59:02;157729.81;;;7.33;100.00
29331;BME280;16331;52.528;13.342;2022-11-15T01:01:28;157757.13;;;7.43;100.00
29331;BME280;16331;52.528;13.342;2022-11-15T01:03:54;157769.44;;;7.48;100.00
29331;BME280;16331;52.528;13.342;2022-11-15T01:06:20;157740.72;;;7.37;100.00
29331;BME280;16331;52.528;13.342;2022-11-15T01:08:46;157717.47;;;7.28;100.00
29331;BME280;16331;52.528;13.342;2022-11-15T01:11:13;157710.63;;;7.26;100.00
29331;BME280;16331;52.528;13.342;2022-11-15T01:13:40;157692.84;;;7.19;100.00
29331;BME280;16331;52.528;13.342;2022-11-15T01:16:15;157684.66;;;7.16;100.00
29331;BME280;16331;52.528;13.342;2022-11-15T01:18:43;157666.88;;;7.10;100.00
29331;BME280;16331;52.528;13.342;2022-11-15T01:21:15;157651.81;;;7.04;100.00
29331;BME280;16331;52.528;13.342;2022-11-15T01:23:42;157657.28;;;7.06;100.00
29331;BME280;16331;52.528;13.342;2022-11-15T01:26:12;157657.28;;;7.06;100.00
29331;BME280;16331;52.528;13.342;2022-11-15T01:28:39;157661.41;;;7.08;100.00
29331;BME280;16331;52.528;13.342;2022-11-15T01:31:11;157645.00;;;7.02;100.00
29331;BME280;16331;52.528;13.342;2022-11-15T01:33:38;157655.91;;;7.06;100.00
29331;BME280;16331;52.528;13.342;2022-11-15T01:36:10;157634.03;;;6.98;100.00
29331;BME280;16331;52.528;13.342;2022-11-15T01:38:37;157632.69;;;6.97;100.00
29331;BME280;16331;52.528;13.342;2022-11-15T01:41:03;157634.03;;;6.98;100.00
29331;BME280;16331;52.528;13.342;2022-11-15T01:43:32;157642.28;;;7.01;100.00
29331;BME280;16331;52.528;13.342;2022-11-15T01:48:44;157627.22;;;6.95;100.00
29331;BME280;16331;52.528;13.342;2022-11-15T01:51:11;157614.94;;;6.91;100.00
29331;BME280;16331;52.528;13.342;2022-11-15T01:53:40;157617.63;;;6.92;100.00
29331;BME280;16331;52.528;13.342;2022-11-15T01:56:11;157631.31;;;6.97;100.00
29331;BME280;16331;52.528;13.342;2022-11-15T01:58:39;157646.38;;;7.02;100.00
29331;BME280;16331;52.528;13.342;2022-11-15T02:01:06;157650.47;;;7.04;100.00
29331;BME280;16331;52.528;13.342;2022-11-15T02:04:19;157636.81;;;6.99;100.00
29331;BME280;16331;52.528;13.342;2022-11-15T02:06:25;157620.41;;;6.93;100.00
29331;BME280;16331;52.528;13.342;2022-11-15T02:08:52;157628.59;;;6.96;100.00
29331;BME280;16331;52.528;13.342;2022-11-15T02:11:19;157635.41;;;6.98;100.00
29331;BME280;16331;52.528;13.342;2022-11-15T02:13:45;157627.22;;;6.95;100.00
29331;BME280;16331;52.528;13.342;2022-11-15T02:22:10;157606.72;;;6.88;100.00
29331;BME280;16331;52.528;13.342;2022-11-15T02:25:08;157612.16;;;6.90;100.00
29331;BME280;16331;52.528;13.342;2022-11-15T02:30:41;157613.53;;;6.90;100.00
29331;BME280;16331;52.528;13.342;2022-11-15T02:35:59;157614.94;;;6.91;100.00
29331;BME280;16331;52.528;13.342;2022-11-15T02:38:47;157613.53;;;6.90;100.00
29331;BME280;16331;52.528;13.342;2022-11-15T02:41:24;157609.44;;;6.89;100.00
29331;BME280;16331;52.528;13.342;2022-11-15T02:44:03;157605.34;;;6.87;100.00
29331;BME280;16331;52.528;13.342;2022-11-15T02:47:00;157612.16;;;6.90;100.00
29331;BME280;16331;52.528;13.342;2022-11-15T02:49:43;157609.44;;;6.89;100.00
29331;BME280;16331;52.528;13.342;2022-11-15T02:52:15;157613.53;;;6.90;100.00
29331;BME280;16331;52.528;13.342;2022-11-15T02:54:42;157625.84;;;6.95;100.00
29331;BME280;16331;52.528;13.342;2022-11-15T02:57:14;157614.94;;;6.91;100.00
29331;BME280;16331;52.528;13.342;2022-11-15T03:00:04;157614.94;;;6.91;100.00
29331;BME280;16331;52.528;13.342;2022-11-15T03:02:47;157609.44;;;6.89;100.00
29331;BME280;16331;52.528;13.342;2022-11-15T03:08:26;157634.03;;;6.98;100.00
29331;BME280;16331;52.528;13.342;2022-11-15T03:11:10;157636.81;;;6.99;100.00
29331;BME280;16331;52.528;13.342;2022-11-15T03:13:59;157636.81;;;6.99;100.00
29331;BME280;16331;52.528;13.342;2022-11-15T03:16:48;157628.59;;;6.96;100.00
29331;BME280;16331;52.528;13.342;2022-11-15T03:19:31;157642.28;;;7.01;100.00
29331;BME280;16331;52.528;13.342;2022-11-15T03:22:03;157662.78;;;7.08;100.00
29331;BME280;16331;52.528;13.342;2022-11-15T03:24:34;157661.41;;;7.08;100.00
29331;BME280;16331;52.528;13.342;2022-11-15T03:27:03;157661.41;;;7.08;100.00
29331;BME280;16331;52.528;13.342;2022-11-15T03:29:37;157672.34;;;7.12;100.00
29331;BME280;16331;52.528;13.342;2022-11-15T03:32:12;157655.91;;;7.06;100.00
29331;BME280;16331;52.528;13.342;2022-11-15T03:34:51;157640.91;;;7.00;100.00
29331;BME280;16331;52.528;13.342;2022-11-15T03:37:22;157636.81;;;6.99;100.00
29331;BME280;16331;52.528;13.342;2022-11-15T03:39:50;157638.19;;;6.99;100.00
29331;BME280;16331;52.528;13.342;2022-11-15T03:44:58;157649.09;;;7.03;100.00
29331;BME280;16331;52.528;13.342;2022-11-15T03:47:38;157646.38;;;7.02;100.00
29331;BME280;16331;52.528;13.342;2022-11-15T03:50:13;157658.69;;;7.07;100.00
29331;BME280;16331;52.528;13.342;2022-11-15T03:52:41;157665.50;;;7.09;100.00
29331;BME280;16331;52.528;13.342;2022-11-15T03:55:10;157672.34;;;7.12;100.00
29331;BME280;16331;52.528;13.342;2022-11-15T03:57:37;157679.19;;;7.14;100.00
29331;BME280;16331;52.528;13.342;2022-11-15T04:00:06;157666.88;;;7.10;100.00
29331;BME280;16331;52.528;13.342;2022-11-15T04:02:32;157657.28;;;7.06;100.00
29331;BME280;16331;52.528;13.342;2022-11-15T04:04:58;157662.78;;;7.08;100.00
29331;BME280;16331;52.528;13.342;2022-11-15T04:07:24;157676.47;;;7.13;100.00
29331;BME280;16331;52.528;13.342;2022-11-15T04:09:50;157677.78;;;7.14;100.00
29331;BME280;16331;52.528;13.342;2022-11-15T04:12:29;157679.19;;;7.14;100.00
29331;BME280;16331;52.528;13.342;2022-11-15T04:15:09;157675.06;;;7.13;100.00
29331;BME280;16331;52.528;13.342;2022-11-15T04:20:24;157661.41;;;7.08;100.00
29331;BME280;16331;52.528;13.342;2022-11-15T04:23:20;157675.06;;;7.13;100.00
29331;BME280;16331;52.528;13.342;2022-11-15T04:26:08;157672.34;;;7.12;100.00
29331;BME280;16331;52.528;13.342;2022-11-15T04:28:35;157687.38;;;7.17;100.00
29331;BME280;16331;52.528;13.342;2022-11-15T04:31:22;157688.75;;;7.18;100.00
29331;BME280;16331;52.528;13.342;2022-11-15T04:33:48;157698.34;;;7.21;100.00
29331;BME280;16331;52.528;13.342;2022-11-15T04:36:14;157694.25;;;7.20;100.00
29331;BME280;16331;52.528;13.342;2022-11-15T04:38:58;157694.25;;;7.20;100.00
29331;BME280;16331;52.528;13.342;2022-11-15T04:41:25;157694.25;;;7.20;100.00
29331;BME280;16331;52.528;13.342;2022-11-15T04:43:51;157696.97;;;7.21;100.00
29331;BME280;16331;52.528;13.342;2022-11-15T04:46:17;157698.34;;;7.21;100.00
29331;BME280;16331;52.528;13.342;2022-11-15T04:48:43;157683.28;;;7.16;100.00
29331;BME280;16331;52.528;13.342;2022-11-15T04:51:09;157664.16;;;7.09;100.00
29331;BME280;16331;52.528;13.342;2022-11-15T04:53:35;157642.28;;;7.01;100.00
29331;BME280;16331;52.528;13.342;2022-11-15T04:56:01;157636.81;;;6.99;100.00
29331;BME280;16331;52.528;13.342;2022-11-15T04:58:27;157650.47;;;7.04;100.00
29331;BME280;16331;52.528;13.342;2022-11-15T05:00:53;157658.69;;;7.07;100.00
29331;BME280;16331;52.528;13.342;2022-11-15T05:03:19;157653.19;;;7.05;100.00
29331;BME280;16331;52.528;13.342;2022-11-15T05:06:04;157645.00;;;7.02;100.00
29331;BME280;16331;52.528;13.342;2022-11-15T05:08:31;157647.72;;;7.03;100.00
29331;BME280;16331;52.528;13.342;2022-11-15T05:10:57;157649.09;;;7.03;100.00
29331;BME280;16331;52.528;13.342;2022-11-15T05:13:23;157662.78;;;7.08;100.00
29331;BME280;16331;52.528;13.342;2022-11-15T05:15:49;157660.00;;;7.07;100.00
29331;BME280;16331;52.528;13.342;2022-11-15T05:18:15;157647.72;;;7.03;100.00
29331;BME280;16331;52.528;13.342;2022-11-15T05:20:41;157677.78;;;7.14;100.00
29331;BME280;16331;52.528;13.342;2022-11-15T05:23:07;157672.34;;;7.12;100.00
29331;BME280;16331;52.528;13.342;2022-11-15T05:25:35;157664.16;;;7.09;100.00
29331;BME280;16331;52.528;13.342;2022-11-15T05:28:01;157666.88;;;7.10;100.00
29331;BME280;16331;52.528;13.342;2022-11-15T05:30:27;157686.03;;;7.17;100.00
29331;BME280;16331;52.528;13.342;2022-11-15T05:32:53;157702.44;;;7.23;100.00
29331;BME280;16331;52.528;13.342;2022-11-15T05:35:33;157683.28;;;7.16;100.00
29331;BME280;16331;52.528;13.342;2022-11-15T05:38:00;157673.69;;;7.12;100.00
29331;BME280;16331;52.528;13.342;2022-11-15T05:40:27;157658.69;;;7.07;100.00
29331;BME280;16331;52.528;13.342;2022-11-15T05:42:55;157666.88;;;7.10;100.00
29331;BME280;16331;52.528;13.342;2022-11-15T05:45:21;157665.50;;;7.09;100.00
29331;BME280;16331;52.528;13.342;2022-11-15T05:47:48;157677.78;;;7.14;100.00
29331;BME280;16331;52.528;13.342;2022-11-15T05:50:17;157721.56;;;7.30;100.00
29331;BME280;16331;52.528;13.342;2022-11-15T05:52:44;157724.31;;;7.31;100.00
29331;BME280;16331;52.528;13.342;2022-11-15T05:55:11;157686.03;;;7.17;100.00
29331;BME280;16331;52.528;13.342;2022-11-15T05:57:38;157677.78;;;7.14;100.00
29331;BME280;16331;52.528;13.342;2022-11-15T06:00:05;157662.78;;;7.08;100.00
29331;BME280;16331;52.528;13.342;2022-11-15T06:02:31;157670.97;;;7.11;100.00
29331;BME280;16331;52.528;13.342;2022-11-15T06:04:57;157658.69;;;7.07;100.00
29331;BME280;16331;52.528;13.342;2022-11-15T06:07:23;157658.69;;;7.07;100.00
29331;BME280;16331;52.528;13.342;2022-11-15T06:09:49;157650.47;;;7.04;100.00
29331;BME280;16331;52.528;13.342;2022-11-15T06:12:15;157620.41;;;6.93;100.00
29331;BME280;16331;52.528;13.342;2022-11-15T06:14:41;157616.31;;;6.91;100.00
29331;BME280;16331;52.528;13.342;2022-11-15T06:17:07;157642.28;;;7.01;100.00
29331;BME280;16331;52.528;13.342;2022-11-15T06:19:33;157639.50;;;7.00;100.00
29331;BME280;16331;52.528;13.342;2022-11-15T06:22:00;157629.94;;;6.96;100.00
29331;BME280;16331;52.528;13.342;2022-11-15T06:24:26;157642.28;;;7.01;100.00
29331;BME280;16331;52.528;13.342;2022-11-15T06:26:52;157666.88;;;7.10;100.00
29331;BME280;16331;52.528;13.342;2022-11-15T06:29:19;157664.16;;;7.09;100.00
29331;BME280;16331;52.528;13.342;2022-11-15T06:31:45;157661.41;;;7.08;100.00
29331;BME280;16331;52.528;13.342;2022-11-15T06:34:11;157647.72;;;7.03;100.00
29331;BME280;16331;52.528;13.342;2022-11-15T06:36:37;157658.69;;;7.07;100.00
29331;BME280;16331;52.528;13.342;2022-11-15T06:39:04;157666.88;;;7.10;100.00
29331;BME280;16331;52.528;13.342;2022-11-15T06:41:33;157680.56;;;7.15;100.00
29331;BME280;16331;52.528;13.342;2022-11-15T06:43:59;157677.78;;;7.14;100.00
29331;BME280;16331;52.528;13.342;2022-11-15T06:46:25;157661.41;;;7.08;100.00
29331;BME280;16331;52.528;13.342;2022-11-15T06:48:52;157669.59;;;7.11;100.00
29331;BME280;16331;52.528;13.342;2022-11-15T06:51:18;157686.03;;;7.17;100.00
29331;BME280;16331;52.528;13.342;2022-11-15T06:53:45;157696.97;;;7.21;100.00
29331;BME280;16331;52.528;13.342;2022-11-15T06:56:11;157694.25;;;7.20;100.00
29331;BME280;16331;52.528;13.342;2022-11-15T06:58:37;157705.16;;;7.24;100.00
29331;BME280;16331;52.528;13.342;2022-11-15T07:01:09;157688.75;;;7.18;100.00
29331;BME280;16331;52.528;13.342;2022-11-15T07:03:40;157695.56;;;7.20;100.00
29331;BME280;16331;52.528;13.342;2022-11-15T07:06:07;157702.44;;;7.23;100.00
29331;BME280;16331;52.528;13.342;2022-11-15T07:08:34;157696.97;;;7.21;100.00
29331;BME280;16331;52.528;13.342;2022-11-15T07:11:03;157716.13;;;7.28;100.00
29331;BME280;16331;52.528;13.342;2022-11-15T07:13:31;157712.03;;;7.26;100.00
29331;BME280;16331;52.528;13.342;2022-11-15T07:16:05;157714.75;;;7.27;100.00
29331;BME280;16331;52.528;13.342;2022-11-15T07:18:33;157738.00;;;7.36;100.00
29331;BME280;16331;52.528;13.342;2022-11-15T07:21:07;157716.13;;;7.28;100.00
29331;BME280;16331;52.528;13.342;2022-11-15T07:23:35;157757.13;;;7.43;100.00
29331;BME280;16331;52.528;13.342;2022-11-15T07:26:02;157783.13;;;7.53;100.00
29331;BME280;16331;52.528;13.342;2022-11-15T07:28:28;157814.59;;;7.64;100.00
29331;BME280;16331;52.528;13.342;2022-11-15T07:30:54;157861.09;;;7.81;100.00
29331;BME280;16331;52.528;13.342;2022-11-15T07:33:21;157878.88;;;7.88;100.00
29331;BME280;16331;52.528;13.342;2022-11-15T07:35:47;157862.47;;;7.82;100.00
29331;BME280;16331;52.528;13.342;2022-11-15T07:38:16;157863.88;;;7.82;100.00
29331;BME280;16331;52.528;13.342;2022-11-15T07:40:46;157841.97;;;7.74;100.00
29331;BME280;16331;52.528;13.342;2022-11-15T07:43:12;157833.78;;;7.71;100.00
29331;BME280;16331;52.528;13.342;2022-11-15T07:45:43;157866.59;;;7.83;100.00
29331;BME280;16331;52.528;13.342;2022-11-15T07:48:09;157902.16;;;7.96;100.00
29331;BME280;16331;52.528;13.342;2022-11-15T07:50:36;157935.00;;;8.08;100.00
29331;BME280;16331;52.528;13.342;2022-11-15T07:53:02;157961.06;;;8.18;100.00
29331;BME280;16331;52.528;13.342;2022-11-15T07:55:28;157907.66;;;7.98;100.00
29331;BME280;16331;52.528;13.342;2022-11-15T07:58:06;157945.97;;;8.12;100.00
29331;BME280;16331;52.528;13.342;2022-11-15T08:00:33;157976.13;;;8.23;100.00
29331;BME280;16331;52.528;13.342;2022-11-15T08:03:04;157971.97;;;8.22;100.00
29331;BME280;16331;52.528;13.342;2022-11-15T08:05:31;158040.47;;;8.47;100.00
29331;BME280;16331;52.528;13.342;2022-11-15T08:07:57;158043.25;;;8.48;100.00
29331;BME280;16331;52.528;13.342;2022-11-15T08:10:24;158081.56;;;8.62;100.00
29331;BME280;16331;52.528;13.342;2022-11-15T08:13:11;158162.34;;;8.92;100.00
29331;BME280;16331;52.528;13.342;2022-11-15T08:15:38;158196.63;;;9.04;100.00
29331;BME280;16331;52.528;13.342;2022-11-15T08:18:06;158165.13;;;8.93;100.00
29331;BME280;16331;52.528;13.342;2022-11-15T08:20:34;158181.53;;;8.99;100.00
29331;BME280;16331;52.528;13.342;2022-11-15T08:23:02;158177.44;;;8.97;100.00
29331;BME280;16331;52.528;13.342;2022-11-15T08:25:30;158232.22;;;9.17;100.00
29331;BME280;16331;52.528;13.342;2022-11-15T08:27:58;158228.13;;;9.16;100.00
29331;BME280;16331;52.528;13.342;2022-11-15T08:30:25;158248.69;;;9.23;100.00
29331;BME280;16331;52.528;13.342;2022-11-15T08:32:53;158240.47;;;9.20;100.00
29331;BME280;16331;52.528;13.342;2022-11-15T08:35:20;158255.53;;;9.26;100.00
29331;BME280;16331;52.528;13.342;2022-11-15T08:37:47;158258.31;;;9.27;100.00
29331;BME280;16331;52.528;13.342;2022-11-15T08:40:13;158277.44;;;9.34;100.00
29331;BME280;16331;52.528;13.342;2022-11-15T08:42:40;158376.16;;;9.70;100.00
29331;BME280;16331;52.528;13.342;2022-11-15T08:45:07;158410.44;;;9.82;100.00
29331;BME280;16331;52.528;13.342;2022-11-15T08:47:34;158365.16;;;9.66;100.00
29331;BME280;16331;52.528;13.342;2022-11-15T08:50:00;158354.22;;;9.62;100.00
29331;BME280;16331;52.528;13.342;2022-11-15T08:52:26;158409.03;;;9.82;100.00
29331;BME280;16331;52.528;13.342;2022-11-15T08:54:52;158485.84;;;10.10;100.00
29331;BME280;16331;52.528;13.342;2022-11-15T08:57:18;158514.69;;;10.20;100.00
29331;BME280;16331;52.528;13.342;2022-11-15T08:59:44;158568.19;;;10.40;100.00
29331;BME280;16331;52.528;13.342;2022-11-15T09:02:13;158599.69;;;10.52;100.00
29331;BME280;16331;52.528;13.342;2022-11-15T09:04:41;158595.59;;;10.50;100.00
29331;BME280;16331;52.528;13.342;2022-11-15T09:07:08;158605.19;;;10.54;100.00
29331;BME280;16331;52.528;13.342;2022-11-15T09:09:35;158636.75;;;10.65;100.00
29331;BME280;16331;52.528;13.342;2022-11-15T09:12:01;158695.78;;;10.87;100.00
29331;BME280;16331;52.528;13.342;2022-11-15T09:14:27;158686.19;;;10.83;100.00
29331;BME280;16331;52.528;13.342;2022-11-15T09:16:53;158706.75;;;10.91;100.00
29331;BME280;16331;52.528;13.342;2022-11-15T09:19:19;158680.66;;;10.81;100.00
29331;BME280;16331;52.528;13.342;2022-11-15T09:21:45;158690.28;;;10.85;100.00
29331;BME280;16331;52.528;13.342;2022-11-15T09:24:11;158723.19;;;10.97;100.00
29331;BME280;16331;52.528;13.342;2022-11-15T09:26:37;158758.88;;;11.10;100.00
29331;BME280;16331;52.528;13.342;2022-11-15T09:29:03;158802.81;;;11.26;100.00
29331;BME280;16331;52.528;13.342;2022-11-15T09:31:29;158837.13;;;11.38;100.00
29331;BME280;16331;52.528;13.342;2022-11-15T09:33:55;158867.31;;;11.49;100.00
29331;BME280;16331;52.528;13.342;2022-11-15T09:36:21;158774.00;;;11.15;100.00
29331;BME280;16331;52.528;13.342;2022-11-15T09:38:47;158774.00;;;11.15;100.00
29331;BME280;16331;52.528;13.342;2022-11-15T09:41:31;158734.19;;;11.01;100.00
29331;BME280;16331;52.528;13.342;2022-11-15T09:44:25;158765.78;;;11.12;100.00
29331;BME280;16331;52.528;13.342;2022-11-15T09:47:10;158782.25;;;11.18;100.00
29331;BME280;16331;52.528;13.342;2022-11-15T09:49:41;158811.03;;;11.29;100.00
29331;BME280;16331;52.528;13.342;2022-11-15T09:52:08;158809.66;;;11.28;100.00
29331;BME280;16331;52.528;13.342;2022-11-15T09:54:41;158882.44;;;11.55;100.00
29331;BME280;16331;52.528;13.342;2022-11-15T09:57:37;158879.72;;;11.54;100.00
29331;BME280;16331;52.528;13.342;2022-11-15T10:00:20;158839.91;;;11.39;100.00
29331;BME280;16331;52.528;13.342;2022-11-15T10:02:58;158883.84;;;11.55;100.00
29331;BME280;16331;52.528;13.342;2022-11-15T10:05:27;158931.97;;;11.73;100.00
29331;BME280;16331;52.528;13.342;2022-11-15T10:08:15;158949.81;;;11.80;100.00
29331;BME280;16331;52.528;13.342;2022-11-15T10:10:49;159069.28;;;12.23;100.00
29331;BME280;16331;52.528;13.342;2022-11-15T10:13:29;159010.25;;;12.02;100.00
29331;BME280;16331;52.528;13.342;2022-11-15T10:16:08;159010.25;;;12.02;100.00
29331;BME280;16331;52.528;13.342;2022-11-15T10:21:40;159047.31;;;12.15;100.00
29331;BME280;16331;52.528;13.342;2022-11-15T10:24:11;159087.16;;;12.30;100.00
29331;BME280;16331;52.528;13.342;2022-11-15T10:26:39;159113.25;;;12.39;100.00
29331;BME280;16331;52.528;13.342;2022-11-15T10:29:11;159070.69;;;12.24;100.00
29331;BME280;16331;52.528;13.342;2022-11-15T10:31:39;159121.50;;;12.42;100.00
29331;BME280;16331;52.528;13.342;2022-11-15T10:34:23;159080.31;;;12.27;100.00
29331;BME280;16331;52.528;13.342;2022-11-15T10:36:57;159083.03;;;12.28;100.00
29331;BME280;16331;52.528;13.342;2022-11-15T10:39:24;159069.28;;;12.23;100.00
29331;BME280;16331;52.528;13.342;2022-11-15T10:41:51;159098.19;;;12.34;100.00
29331;BME280;16331;52.528;13.342;2022-11-15T10:46:50;159109.16;;;12.38;100.00
29331;BME280;16331;52.528;13.342;2022-11-15T10:49:31;159092.66;;;12.32;100.00
29331;BME280;16331;52.528;13.342;2022-11-15T10:52:02;159128.41;;;12.45;100.00
29331;BME280;16331;52.528;13.342;2022-11-15T10:54:51;159177.84;;;12.63;100.00
29331;BME280;16331;52.528;13.342;2022-11-15T10:57:24;159151.72;;;12.53;100.00
29331;BME280;16331;52.528;13.342;2022-11-15T10:59:55;159190.25;;;12.67;100.00
29331;BME280;16331;52.528;13.342;2022-11-15T11:04:54;159216.38;;;12.77;100.00
29331;BME280;16331;52.528;13.342;2022-11-15T11:07:24;159197.09;;;12.70;100.00
29331;BME280;16331;52.528;13.342;2022-11-15T11:10:19;159326.41;;;13.17;100.00
29331;BME280;16331;52.528;13.342;2022-11-15T11:12:45;159501.09;;;13.81;100.00
29331;BME280;16331;52.528;13.342;2022-11-15T11:15:16;159664.94;;;14.40;100.00
29331;BME280;16331;52.528;13.342;2022-11-15T11:17:57;159718.59;;;14.60;100.00
29331;BME280;16331;52.528;13.342;2022-11-15T11:20:32;159719.97;;;14.61;100.00
29331;BME280;16331;52.528;13.342;2022-11-15T11:25:51;159947.28;;;15.43;100.00
29331;BME280;16331;52.528;13.342;2022-11-15T11:33:32;160290.59;;;16.68;100.00
29331;BME280;16331;52.528;13.342;2022-11-15T11:36:17;160138.88;;;16.13;100.00
29331;BME280;16331;52.528;13.342;2022-11-15T11:39:14;160315.47;;;16.77;100.00
29331;BME280;16331;52.528;13.342;2022-11-15T11:41:53;160315.47;;;16.77;100.00
29331;BME280;16331;52.528;13.342;2022-11-15T11:47:21;160599.78;;;17.81;92.41
29331;BME280;16331;52.528;13.342;2022-11-15T11:50:12;160349.94;;;16.90;100.00
29331;BME280;16331;52.528;13.342;2022-11-15T11:55:45;160757.19;;;18.38;87.56
29331;BME280;16331;52.528;13.342;2022-11-15T11:58:22;160566.63;;;17.69;91.58
29331;BME280;16331;52.528;13.342;2022-11-15T12:00:58;160656.38;;;18.01;90.00
29331;BME280;16331;52.528;13.342;2022-11-15T12:09:01;160443.72;;;17.24;96.42
29331;BME280;16331;52.528;13.342;2022-11-15T12:14:12;160581.84;;;17.74;93.62
29331;BME280;16331;52.528;13.342;2022-11-15T12:16:42;160862.25;;;18.76;89.34
29331;BME280;16331;52.528;13.342;2022-11-15T12:19:09;160807.00;;;18.56;83.67
29331;BME280;16331;52.528;13.342;2022-11-15T12:21:49;160762.78;;;18.40;85.04
29331;BME280;16331;52.528;13.342;2022-11-15T12:24:22;160595.66;;;17.79;91.19
29331;BME280;16331;52.528;13.342;2022-11-15T12:29:41;160482.41;;;17.38;93.98
29331;BME280;16331;52.528;13.342;2022-11-15T12:32:30;160438.25;;;17.22;96.32
29331;BME280;16331;52.528;13.342;2022-11-15T12:34:57;160527.97;;;17.55;95.84
29331;BME280;16331;52.528;13.342;2022-11-15T12:40:19;160936.88;;;19.03;86.63
29331;BME280;16331;52.528;13.342;2022-11-15T12:42:57;161196.91;;;19.97;74.29
29331;BME280;16331;52.528;13.342;2022-11-15T12:45:37;161238.34;;;20.12;72.50
29331;BME280;16331;52.528;13.342;2022-11-15T12:58:55;161224.50;;;20.07;70.72
29331;BME280;16331;52.528;13.342;2022-11-15T13:06:46;160610.81;;;17.85;91.03
29331;BME280;16331;52.528;13.342;2022-11-15T13:11:56;160282.34;;;16.65;100.00
29331;BME280;16331;52.528;13.342;2022-11-15T13:27:50;159925.19;;;15.35;100.00
29331;BME280;16331;52.528;13.342;2022-11-15T13:30:29;159876.97;;;15.18;100.00
29331;BME280;16331;52.528;13.342;2022-11-15T13:33:00;159937.63;;;15.40;100.00
29331;BME280;16331;52.528;13.342;2022-11-15T13:35:34;159868.72;;;15.15;100.00
29331;BME280;16331;52.528;13.342;2022-11-15T13:38:04;159940.41;;;15.41;100.00
29331;BME280;16331;52.528;13.342;2022-11-15T13:40:36;159824.63;;;14.99;100.00
29331;BME280;16331;52.528;13.342;2022-11-15T13:46:05;159762.66;;;14.76;100.00
29331;BME280;16331;52.528;13.342;2022-11-15T13:48:31;159792.94;;;14.87;100.00
29331;BME280;16331;52.528;13.342;2022-11-15T13:51:00;159786.06;;;14.85;100.00
29331;BME280;16331;52.528;13.342;2022-11-15T13:53:27;159806.72;;;14.92;100.00
29331;BME280;16331;52.528;13.342;2022-11-15T13:55:56;159766.78;;;14.78;100.00
29331;BME280;16331;52.528;13.342;2022-11-15T13:58:23;159750.25;;;14.72;100.00
29331;BME280;16331;52.528;13.342;2022-11-15T14:00:59;159678.66;;;14.45;100.00
29331;BME280;16331;52.528;13.342;2022-11-15T14:03:27;159703.47;;;14.55;100.00
29331;BME280;16331;52.528;13.342;2022-11-15T14:06:06;159677.31;;;14.45;100.00
29331;BME280;16331;52.528;13.342;2022-11-15T14:08:34;159691.09;;;14.50;100.00
29331;BME280;16331;52.528;13.342;2022-11-15T14:11:18;159724.09;;;14.62;100.00
29331;BME280;16331;52.528;13.342;2022-11-15T14:14:12;159674.53;;;14.44;100.00
29331;BME280;16331;52.528;13.342;2022-11-15T14:16:44;159693.81;;;14.51;100.00
29331;BME280;16331;52.528;13.342;2022-11-15T14:19:37;159678.66;;;14.45;100.00
29331;BME280;16331;52.528;13.342;2022-11-15T14:22:20;159587.78;;;14.12;100.00
29331;BME280;16331;52.528;13.342;2022-11-15T14:25:15;159527.22;;;13.90;100.00
29331;BME280;16331;52.528;13.342;2022-11-15T14:27:44;159536.88;;;13.94;100.00
29331;BME280;16331;52.528;13.342;2022-11-15T14:30:30;159579.53;;;14.09;100.00